LIRQ/FLR METAR and TAF weather

Enter ICAO airport designator
Station Type Date Time Source
LIRQ METAR 2019/04/22 17:50 UTC NOAA

LIRQ 221750Z 04006KT 340V120 8000 -RA SCT045 BKN070 15/12 Q1006


Station Type Date Time Source
LIRQ Decoded METAR 2019/04/22 17:50 UTC NOAA

Firenze / Peretola, Italy (LIRQ) 43-48N 011-12E 38M
Apr 22, 2019 - 01:50 PM EDT / 2019.04.22 1750 UTC
Wind: from the NE (040 degrees) at 7 MPH (6 KT) (direction variable):0
Visibility: 4 mile(s):0
Sky conditions: mostly cloudy
Weather: light rain
Temperature: 59 F (15 C)
Dew Point: 53 F (12 C)
Relative Humidity: 82%
Pressure (altimeter): 29.71 in. Hg (1006 hPa)
ob: LIRQ 221750Z 04006KT 340V120 8000 -RA SCT045 BKN070 15/12 Q1006
cycle: 18

Station Type Date Time Source
LIRQ TAF 2019/04/22 18:21 UTC NOAA

TAF TAF LIRQ 221700Z 2218/2318 04015KT 9999 SCT040
TEMPO 2300/2315 4000 SHRA

Example: see airport list